createdAt,value
2023-05-03T00:02:19.394Z,15.30
2023-05-03T00:05:06.112Z,15.93
2023-05-03T00:07:52.923Z,17.07
2023-05-03T00:10:36.818Z,15.57
2023-05-03T00:13:20.629Z,15.67
2023-05-03T00:16:04.804Z,16.90
2023-05-03T00:18:49.440Z,15.93
2023-05-03T00:21:33.358Z,19.50
2023-05-03T00:24:18.906Z,16.23
2023-05-03T00:27:02.851Z,14.53
2023-05-03T00:29:47.038Z,14.77
2023-05-03T00:32:30.744Z,14.40
2023-05-03T00:35:14.474Z,13.93
2023-05-03T00:37:58.366Z,14.23
2023-05-03T00:40:43.607Z,12.10
2023-05-03T00:43:27.696Z,16.20
2023-05-03T00:46:17.269Z,20.10
2023-05-03T00:49:02.357Z,16.60
2023-05-03T00:51:46.345Z,12.80
2023-05-03T00:54:33.129Z,13.67
2023-05-03T00:57:18.607Z,15.53
2023-05-03T01:00:04.183Z,11.17
2023-05-03T01:02:50.515Z,12.20
2023-05-03T01:05:43.639Z,11.50
2023-05-03T01:08:33.102Z,14.40
2023-05-03T01:11:24.064Z,14.47
2023-05-03T01:14:17.782Z,13.47
2023-05-03T01:17:08.808Z,13.33
2023-05-03T01:19:56.454Z,14.27
2023-05-03T01:22:47.134Z,13.07
2023-05-03T01:25:32.955Z,11.70
2023-05-03T01:28:16.748Z,12.30
2023-05-03T01:31:01.214Z,13.30
2023-05-03T01:33:55.058Z,12.17
2023-05-03T01:36:40.356Z,11.80
2023-05-03T01:39:27.376Z,13.33
2023-05-03T01:42:13.566Z,13.90
2023-05-03T01:44:58.062Z,15.30
2023-05-03T01:47:42.029Z,18.33
2023-05-03T01:50:25.931Z,18.53
2023-05-03T01:53:09.771Z,18.97
2023-05-03T01:55:53.498Z,15.50
2023-05-03T01:58:38.728Z,14.83
2023-05-03T02:01:22.493Z,15.57
2023-05-03T02:04:06.857Z,14.00
2023-05-03T02:06:50.893Z,21.27
2023-05-03T02:09:35.380Z,16.80
2023-05-03T02:12:19.306Z,14.50
2023-05-03T02:15:05.579Z,18.97
2023-05-03T02:17:51.004Z,14.03
2023-05-03T02:20:37.847Z,14.50
2023-05-03T02:23:21.874Z,14.03
2023-05-03T02:26:06.635Z,14.20
2023-05-03T02:28:50.714Z,13.73
2023-05-03T02:31:35.999Z,12.63
2023-05-03T02:34:20.936Z,13.27
2023-05-03T02:37:05.464Z,13.33
2023-05-03T02:39:51.106Z,15.20
2023-05-03T02:42:34.977Z,13.27
2023-05-03T02:45:19.014Z,13.67
2023-05-03T02:48:04.239Z,13.43
2023-05-03T02:50:48.469Z,18.37
2023-05-03T02:53:32.319Z,18.60
2023-05-03T02:56:19.657Z,18.07
2023-05-03T02:59:03.759Z,13.40
2023-05-03T03:01:48.085Z,15.17
2023-05-03T03:04:34.438Z,15.43
2023-05-03T03:07:18.336Z,13.60
2023-05-03T03:10:02.386Z,12.50
2023-05-03T03:12:48.465Z,11.20
2023-05-03T03:15:41.365Z,14.00
2023-05-03T03:18:25.250Z,12.57
2023-05-03T03:21:10.547Z,12.47
2023-05-03T03:23:54.640Z,13.07
2023-05-03T03:26:38.556Z,12.47
2023-05-03T03:29:22.471Z,12.07
2023-05-03T03:32:07.744Z,12.13
2023-05-03T03:34:52.032Z,14.47
2023-05-03T03:37:38.984Z,12.23
2023-05-03T03:40:23.865Z,14.17
2023-05-03T03:43:10.385Z,12.90
2023-05-03T03:45:55.246Z,12.70
2023-05-03T03:48:39.729Z,13.27
2023-05-03T03:51:23.889Z,15.10
2023-05-03T03:54:09.219Z,13.87
2023-05-03T03:56:58.183Z,14.00
2023-05-03T03:59:41.999Z,15.10
2023-05-03T04:02:26.353Z,12.87
2023-05-03T04:05:11.151Z,13.03
2023-05-03T04:07:55.108Z,12.90
2023-05-03T04:10:40.295Z,12.97
2023-05-03T04:13:24.623Z,14.00
2023-05-03T04:16:11.577Z,13.67
2023-05-03T04:18:56.154Z,15.47
2023-05-03T04:21:40.062Z,14.60
2023-05-03T04:24:24.482Z,15.57
2023-05-03T04:27:09.827Z,16.70
2023-05-03T04:29:56.062Z,14.87
2023-05-03T04:32:40.773Z,15.17
2023-05-03T04:35:28.882Z,12.63
2023-05-03T04:38:14.820Z,12.20
2023-05-03T04:40:58.833Z,12.03
2023-05-03T04:43:44.760Z,11.93
2023-05-03T04:46:29.531Z,11.80
2023-05-03T04:49:13.608Z,12.20
2023-05-03T04:51:57.434Z,12.33
2023-05-03T04:54:42.549Z,8.60
2023-05-03T04:57:26.465Z,10.87
2023-05-03T05:00:13.486Z,11.23
2023-05-03T05:03:02.512Z,8.13
2023-05-03T05:05:48.316Z,7.90
2023-05-03T05:08:32.309Z,9.10
2023-05-03T05:11:16.822Z,9.90
2023-05-03T05:14:01.915Z,8.30
2023-05-03T05:16:47.446Z,9.17
2023-05-03T05:19:31.965Z,12.60
2023-05-03T05:22:15.803Z,9.23
2023-05-03T05:25:05.940Z,8.80
2023-05-03T05:27:50.353Z,9.20
2023-05-03T05:30:35.197Z,12.03
2023-05-03T05:33:21.079Z,8.93
2023-05-03T05:36:07.406Z,9.07
2023-05-03T05:38:51.663Z,7.67
2023-05-03T05:41:35.519Z,8.90
2023-05-03T05:44:19.407Z,9.23
2023-05-03T05:47:08.144Z,6.87
2023-05-03T05:49:54.813Z,6.63
2023-05-03T05:52:39.064Z,8.15
2023-05-03T05:55:24.122Z,6.38
2023-05-03T05:58:09.924Z,6.63
2023-05-03T06:01:01.458Z,6.53
2023-05-03T06:03:47.640Z,7.22
2023-05-03T06:06:33.350Z,7.88
2023-05-03T06:12:08.235Z,5.55
2023-05-03T06:15:02.389Z,6.50
2023-05-03T06:17:51.871Z,8.20
2023-05-03T06:20:35.978Z,6.53
2023-05-03T06:23:21.863Z,6.20
2023-05-03T06:26:09.545Z,7.50
2023-05-03T06:28:53.741Z,6.43
2023-05-03T06:31:41.974Z,7.55
2023-05-03T06:34:27.602Z,23.33
2023-05-03T06:37:12.920Z,6.10
2023-05-03T06:39:58.520Z,4.20
2023-05-03T06:42:42.513Z,5.10
2023-05-03T06:45:30.177Z,6.20
2023-05-03T06:48:15.695Z,8.07
2023-05-03T06:51:01.550Z,5.22
2023-05-03T06:53:46.330Z,7.10
2023-05-03T06:56:31.840Z,5.23
2023-05-03T06:59:15.793Z,9.80
2023-05-03T07:02:00.084Z,7.30
2023-05-03T07:04:44.124Z,4.45
2023-05-03T07:07:28.290Z,8.35
2023-05-03T07:10:12.372Z,4.10
2023-05-03T07:12:58.042Z,3.90
2023-05-03T07:15:42.071Z,5.53
2023-05-03T07:18:25.853Z,3.78
2023-05-03T07:21:09.754Z,4.88
2023-05-03T07:23:53.687Z,6.97
2023-05-03T07:26:37.524Z,4.47
2023-05-03T07:29:23.107Z,3.55
2023-05-03T07:32:07.385Z,5.68
2023-05-03T07:34:51.364Z,5.43
2023-05-03T07:37:35.768Z,7.15
2023-05-03T07:40:20.144Z,5.68
2023-05-03T07:43:04.419Z,22.27
2023-05-03T07:45:49.672Z,8.23
2023-05-03T07:48:33.578Z,5.45
2023-05-03T07:51:17.554Z,9.65
2023-05-03T07:54:01.726Z,11.02
2023-05-03T07:56:45.694Z,7.47
2023-05-03T07:59:29.732Z,9.93
2023-05-03T08:02:15.068Z,8.82
2023-05-03T08:04:59.279Z,4.82
2023-05-03T08:07:43.398Z,10.82
2023-05-03T08:10:27.255Z,10.10
2023-05-03T08:13:11.698Z,11.65
2023-05-03T08:15:56.166Z,10.73
2023-05-03T08:18:41.513Z,5.63
2023-05-03T08:21:26.282Z,3.13
2023-05-03T08:24:10.843Z,5.95
2023-05-03T08:26:57.012Z,7.13
2023-05-03T08:29:40.997Z,3.30
2023-05-03T08:32:25.197Z,2.92
2023-05-03T08:35:13.906Z,3.08
2023-05-03T08:37:57.963Z,6.63
2023-05-03T08:40:41.908Z,6.90
2023-05-03T08:43:29.651Z,3.17
2023-05-03T08:46:13.598Z,2.97
2023-05-03T08:48:57.707Z,7.38
2023-05-03T08:51:47.302Z,3.15
2023-05-03T08:54:31.421Z,7.07
2023-05-03T08:57:16.730Z,5.80
2023-05-03T09:00:02.366Z,6.45
2023-05-03T09:02:51.870Z,5.68
2023-05-03T09:05:39.230Z,4.68
2023-05-03T09:08:24.906Z,8.65
2023-05-03T09:11:23.187Z,6.57
2023-05-03T09:14:12.366Z,4.80
2023-05-03T09:16:56.587Z,3.58
2023-05-03T09:19:52.791Z,8.27
2023-05-03T09:22:37.778Z,5.70
2023-05-03T09:25:23.191Z,6.22
2023-05-03T09:28:07.268Z,5.60
2023-05-03T09:31:04.955Z,8.90
2023-05-03T09:33:49.060Z,7.20
2023-05-03T09:36:47.857Z,9.45
2023-05-03T09:39:32.423Z,2.75
2023-05-03T09:42:19.670Z,11.57
2023-05-03T09:45:04.128Z,3.58
2023-05-03T09:47:54.200Z,8.65
2023-05-03T09:50:38.936Z,3.28
2023-05-03T09:53:23.990Z,6.03
2023-05-03T09:56:12.698Z,6.30
2023-05-03T09:58:59.151Z,5.28
2023-05-03T10:01:43.388Z,3.60
2023-05-03T10:04:29.345Z,6.22
2023-05-03T10:07:16.005Z,4.78
2023-05-03T10:10:00.168Z,3.58
2023-05-03T10:12:45.281Z,3.17
2023-05-03T10:15:32.567Z,4.80
2023-05-03T10:18:18.274Z,3.97
2023-05-03T10:21:07.137Z,4.35
2023-05-03T10:24:13.174Z,5.85
2023-05-03T10:26:57.986Z,1.98
2023-05-03T10:30:04.232Z,3.53
2023-05-03T10:32:50.851Z,4.22
2023-05-03T10:35:34.963Z,5.03
2023-05-03T10:38:21.835Z,2.30
2023-05-03T10:41:07.315Z,3.30
2023-05-03T10:43:51.421Z,3.55
2023-05-03T10:46:36.654Z,1.90
2023-05-03T10:49:23.310Z,3.47
2023-05-03T10:52:50.000Z,6.97
2023-05-03T10:55:34.779Z,4.90
2023-05-03T10:58:19.138Z,3.75
2023-05-03T11:01:04.712Z,5.50
2023-05-03T11:03:53.535Z,2.35
2023-05-03T11:06:41.563Z,4.40
2023-05-03T11:09:33.257Z,3.17
2023-05-03T11:12:17.476Z,2.17
2023-05-03T11:15:01.943Z,6.78
2023-05-03T11:17:47.583Z,2.65
2023-05-03T11:20:31.752Z,5.80
2023-05-03T11:23:17.191Z,3.30
2023-05-03T11:26:01.076Z,2.63
2023-05-03T11:28:45.952Z,2.00
2023-05-03T11:31:30.117Z,5.32
2023-05-03T11:34:15.845Z,3.42
2023-05-03T11:36:59.892Z,5.90
2023-05-03T11:39:45.166Z,5.45
2023-05-03T11:42:29.290Z,5.20
2023-05-03T11:45:13.472Z,10.45
2023-05-03T11:47:58.300Z,4.22
2023-05-03T11:50:46.769Z,3.47
2023-05-03T11:53:31.055Z,3.17
2023-05-03T11:56:18.887Z,2.45
2023-05-03T11:59:03.261Z,6.22
2023-05-03T12:01:49.540Z,2.67
2023-05-03T12:04:33.826Z,3.72
2023-05-03T12:07:19.960Z,3.58
2023-05-03T12:10:20.850Z,5.15
2023-05-03T12:13:08.757Z,3.65
2023-05-03T12:16:11.074Z,7.00
2023-05-03T12:18:59.702Z,4.80
2023-05-03T12:22:02.921Z,4.80
2023-05-03T12:24:53.607Z,6.30
2023-05-03T12:27:39.768Z,2.60
2023-05-03T12:30:27.485Z,3.05
2023-05-03T12:33:15.330Z,5.22
2023-05-03T12:35:59.841Z,8.00
2023-05-03T12:38:43.946Z,3.60
2023-05-03T12:44:17.484Z,7.03
2023-05-03T12:47:03.402Z,4.35
2023-05-03T12:49:51.144Z,3.17
2023-05-03T12:52:38.641Z,5.70
2023-05-03T12:55:25.446Z,3.35
2023-05-03T13:03:57.798Z,3.55
2023-05-03T13:06:54.694Z,2.40
2023-05-03T13:12:47.765Z,2.83
2023-05-03T13:15:31.617Z,5.82
2023-05-03T13:18:15.496Z,3.20
2023-05-03T13:21:00.653Z,3.75
2023-05-03T13:26:45.805Z,8.40
2023-05-03T13:29:29.539Z,7.95
2023-05-03T13:32:13.654Z,4.25
2023-05-03T13:34:57.544Z,8.00
2023-05-03T13:37:42.981Z,5.05
2023-05-03T13:40:27.069Z,5.82
2023-05-03T13:43:11.396Z,4.15
2023-05-03T13:46:01.763Z,9.18
2023-05-03T13:48:45.905Z,6.05
2023-05-03T13:51:30.101Z,8.70
2023-05-03T13:54:15.678Z,6.50
2023-05-03T13:56:59.600Z,4.40
2023-05-03T13:59:43.635Z,4.82
2023-05-03T14:02:27.781Z,4.38
2023-05-03T14:05:12.085Z,3.97
2023-05-03T14:07:56.966Z,2.58
2023-05-03T14:10:42.909Z,6.80
2023-05-03T14:13:27.331Z,5.05
2023-05-03T14:16:27.578Z,5.95
2023-05-03T14:19:20.217Z,5.82
2023-05-03T14:22:04.606Z,29.92
2023-05-03T14:24:48.847Z,8.05
2023-05-03T14:27:34.340Z,5.45
2023-05-03T14:30:18.511Z,10.75
2023-05-03T14:33:02.701Z,5.75
2023-05-03T14:35:46.917Z,5.18
2023-05-03T14:38:31.070Z,4.63
2023-05-03T14:41:15.095Z,10.15
2023-05-03T14:44:00.508Z,6.90
2023-05-03T14:46:44.533Z,29.10
2023-05-03T14:49:28.548Z,6.60
2023-05-03T14:52:12.448Z,7.47
2023-05-03T14:54:56.698Z,4.55
2023-05-03T14:57:40.725Z,5.60
2023-05-03T15:00:28.411Z,6.78
2023-05-03T15:03:13.174Z,4.97
2023-05-03T15:05:57.203Z,5.82
2023-05-03T15:08:41.514Z,4.70
2023-05-03T15:11:25.659Z,4.65
2023-05-03T15:14:09.523Z,6.13
2023-05-03T15:16:55.259Z,5.47
2023-05-03T15:19:39.193Z,7.00
2023-05-03T15:22:23.411Z,4.22
2023-05-03T15:25:08.453Z,11.85
2023-05-03T15:27:52.792Z,6.13
2023-05-03T15:30:36.943Z,4.38
2023-05-03T15:33:22.471Z,5.72
2023-05-03T15:36:09.326Z,9.50
2023-05-03T15:38:53.447Z,7.10
2023-05-03T15:41:37.498Z,9.95
2023-05-03T15:44:24.305Z,4.40
2023-05-03T15:47:08.453Z,3.93
2023-05-03T15:49:54.401Z,4.43
2023-05-03T15:52:38.608Z,7.10
2023-05-03T15:55:22.697Z,4.23
2023-05-03T15:58:07.702Z,5.63
2023-05-03T16:00:52.515Z,9.27
2023-05-03T16:03:36.544Z,5.47
2023-05-03T16:06:22.286Z,4.47
2023-05-03T16:09:08.515Z,6.03
2023-05-03T16:11:52.828Z,4.20
2023-05-03T16:14:36.945Z,4.63
2023-05-03T16:17:22.263Z,6.27
2023-05-03T16:20:08.372Z,6.23
2023-05-03T16:22:53.944Z,5.40
2023-05-03T16:25:38.319Z,3.73
2023-05-03T16:28:22.415Z,5.87
2023-05-03T16:31:06.578Z,7.37
2023-05-03T16:33:50.605Z,8.53
2023-05-03T16:36:34.748Z,5.03
2023-05-03T16:39:20.338Z,5.90
2023-05-03T16:42:04.325Z,9.87
2023-05-03T16:44:48.501Z,6.40
2023-05-03T16:47:35.223Z,6.87
2023-05-03T16:50:19.365Z,4.50
2023-05-03T16:53:05.401Z,7.87
2023-05-03T16:55:51.440Z,7.53
2023-05-03T16:58:35.859Z,5.17
2023-05-03T17:01:23.123Z,7.27
2023-05-03T17:04:07.748Z,7.67
2023-05-03T17:09:37.323Z,5.23
2023-05-03T17:12:22.850Z,7.30
2023-05-03T17:15:08.398Z,8.87
2023-05-03T17:17:55.277Z,8.10
2023-05-03T17:20:39.530Z,9.30
2023-05-03T17:23:23.713Z,9.07
2023-05-03T17:26:09.762Z,8.00
2023-05-03T17:29:02.548Z,7.50
2023-05-03T17:31:48.919Z,10.83
2023-05-03T17:34:36.160Z,6.80
2023-05-03T17:37:20.284Z,7.97
2023-05-03T17:40:05.494Z,5.07
2023-05-03T17:42:49.630Z,6.23
2023-05-03T17:45:35.021Z,4.70
2023-05-03T17:48:20.875Z,6.47
2023-05-03T17:51:04.982Z,5.90
2023-05-03T17:53:49.273Z,5.80
2023-05-03T17:56:35.525Z,7.13
2023-05-03T17:59:19.806Z,9.37
2023-05-03T18:02:08.358Z,7.07
2023-05-03T18:04:52.493Z,7.97
2023-05-03T18:07:38.437Z,9.77
2023-05-03T18:10:30.398Z,8.23
2023-05-03T18:13:15.862Z,6.80
2023-05-03T18:16:00.534Z,9.97
2023-05-03T18:18:47.917Z,6.67
2023-05-03T18:21:31.999Z,5.33
2023-05-03T18:24:19.767Z,8.03
2023-05-03T18:27:06.837Z,6.00
2023-05-03T18:29:51.248Z,9.57
2023-05-03T18:32:37.716Z,10.17
2023-05-03T18:35:24.900Z,5.60
2023-05-03T18:38:10.276Z,8.03
2023-05-03T18:40:58.131Z,6.77
2023-05-03T18:43:44.833Z,8.33
2023-05-03T18:46:30.344Z,9.47
2023-05-03T18:49:15.662Z,8.63
2023-05-03T18:52:01.557Z,6.37
2023-05-03T18:54:45.796Z,6.03
2023-05-03T18:57:31.945Z,6.50
2023-05-03T19:00:30.087Z,8.53
2023-05-03T19:03:14.245Z,7.20
2023-05-03T19:06:02.894Z,7.30
2023-05-03T19:08:53.723Z,8.93
2023-05-03T19:11:37.950Z,4.70
2023-05-03T19:14:22.328Z,5.47
2023-05-03T19:17:15.376Z,6.07
2023-05-03T19:20:05.408Z,6.97
2023-05-03T19:22:50.274Z,6.07
2023-05-03T19:25:39.248Z,6.70
2023-05-03T19:28:26.422Z,7.37
2023-05-03T19:31:12.809Z,4.60
2023-05-03T19:33:57.153Z,11.17
2023-05-03T19:36:46.176Z,7.20
2023-05-03T19:39:36.908Z,5.27
2023-05-03T19:42:22.486Z,6.47
2023-05-03T19:45:11.363Z,6.13
2023-05-03T19:47:55.830Z,5.80
2023-05-03T19:50:40.176Z,8.50
2023-05-03T19:53:24.320Z,7.93
2023-05-03T19:56:09.805Z,5.07
2023-05-03T19:58:55.753Z,9.00
2023-05-03T20:01:40.025Z,7.30
2023-05-03T20:04:28.817Z,5.87
2023-05-03T20:07:12.962Z,5.73
2023-05-03T20:09:57.238Z,4.70
2023-05-03T20:12:41.378Z,6.47
2023-05-03T20:15:35.144Z,5.80
2023-05-03T20:18:19.371Z,3.97
2023-05-03T20:21:03.962Z,7.60
2023-05-03T20:23:52.495Z,10.10
2023-05-03T20:26:44.609Z,6.67
2023-05-03T20:29:28.831Z,6.47
2023-05-03T20:32:14.404Z,7.50
2023-05-03T20:35:02.490Z,9.30
2023-05-03T20:37:47.620Z,11.97
2023-05-03T20:40:35.838Z,8.17
2023-05-03T20:43:22.790Z,6.27
2023-05-03T20:46:12.446Z,6.00
2023-05-03T20:48:58.940Z,8.97
2023-05-03T20:51:43.073Z,10.10
2023-05-03T20:54:32.946Z,7.37
2023-05-03T20:57:20.202Z,6.43
2023-05-03T21:00:04.889Z,12.37
2023-05-03T21:02:56.651Z,9.80
2023-05-03T21:05:42.175Z,7.70
2023-05-03T21:08:29.115Z,6.37
2023-05-03T21:11:20.510Z,5.30
2023-05-03T21:14:04.566Z,6.27
2023-05-03T21:16:51.397Z,8.30
2023-05-03T21:19:35.651Z,9.73
2023-05-03T21:22:30.061Z,6.83
2023-05-03T21:25:14.512Z,13.60
2023-05-03T21:27:58.717Z,11.63
2023-05-03T21:30:45.974Z,5.33
2023-05-03T21:33:32.538Z,7.30
2023-05-03T21:36:17.309Z,7.03
2023-05-03T21:39:05.799Z,7.93
2023-05-03T21:41:49.899Z,6.20
2023-05-03T21:44:35.091Z,18.97
2023-05-03T21:47:21.654Z,18.27
2023-05-03T21:50:07.155Z,10.10
2023-05-03T21:52:54.240Z,12.67
2023-05-03T21:55:40.056Z,10.87
2023-05-03T21:58:24.246Z,15.83
2023-05-03T22:01:11.114Z,15.53
2023-05-03T22:03:55.524Z,25.13
2023-05-03T22:06:39.676Z,15.13
2023-05-03T22:09:28.422Z,13.47
2023-05-03T22:12:23.524Z,20.57
2023-05-03T22:15:09.558Z,10.80
2023-05-03T22:17:53.681Z,9.70
2023-05-03T22:20:37.885Z,10.10
2023-05-03T22:23:21.896Z,19.13
2023-05-03T22:26:05.987Z,19.50
2023-05-03T22:28:51.467Z,22.57
2023-05-03T22:31:35.447Z,16.07
2023-05-03T22:34:19.710Z,15.80
2023-05-03T22:37:03.720Z,15.50
2023-05-03T22:39:47.725Z,7.60
2023-05-03T22:42:31.780Z,11.53
2023-05-03T22:45:17.163Z,9.93
2023-05-03T22:48:01.203Z,6.77
2023-05-03T22:50:45.564Z,15.57
2023-05-03T22:53:29.491Z,14.77
2023-05-03T22:56:13.550Z,12.53
2023-05-03T22:58:57.312Z,9.13
2023-05-03T23:01:44.173Z,8.23
2023-05-03T23:04:28.040Z,9.60
2023-05-03T23:07:11.860Z,10.60
2023-05-03T23:10:02.961Z,7.17
2023-05-03T23:12:50.224Z,7.20
2023-05-03T23:15:34.427Z,12.30
2023-05-03T23:18:19.810Z,10.87
2023-05-03T23:21:04.448Z,9.27
2023-05-03T23:23:48.167Z,10.40
2023-05-03T23:26:32.052Z,8.57
2023-05-03T23:29:16.737Z,13.30
2023-05-03T23:32:01.075Z,21.43
2023-05-03T23:34:46.616Z,22.30
2023-05-03T23:37:30.634Z,31.30
2023-05-03T23:40:14.572Z,26.20
2023-05-03T23:42:58.421Z,13.57
2023-05-03T23:45:42.415Z,11.23
2023-05-03T23:48:26.178Z,12.00
2023-05-03T23:51:11.444Z,13.90
2023-05-03T23:53:55.250Z,11.83
2023-05-03T23:56:39.208Z,11.47
2023-05-03T23:59:22.948Z,16.13
